createdAt,value
2023-04-23T00:00:01.948Z,9.60
2023-04-23T00:02:33.517Z,9.50
2023-04-23T00:05:06.545Z,9.50
2023-04-23T00:07:34.928Z,9.50
2023-04-23T00:10:08.392Z,9.40
2023-04-23T00:12:36.288Z,9.50
2023-04-23T00:15:07.082Z,9.50
2023-04-23T00:17:34.653Z,9.40
2023-04-23T00:20:03.039Z,9.30
2023-04-23T00:22:31.100Z,9.20
2023-04-23T00:24:58.703Z,9.20
2023-04-23T00:27:26.220Z,9.20
2023-04-23T00:29:53.826Z,9.30
2023-04-23T00:32:22.818Z,9.30
2023-04-23T00:34:50.384Z,9.30
2023-04-23T00:37:18.896Z,9.50
2023-04-23T00:39:46.714Z,9.70
2023-04-23T00:42:14.397Z,9.60
2023-04-23T00:44:42.736Z,9.60
2023-04-23T00:47:12.335Z,9.50
2023-04-23T00:49:40.337Z,9.40
2023-04-23T00:52:07.947Z,9.40
2023-04-23T00:54:35.456Z,9.50
2023-04-23T00:57:03.801Z,9.40
2023-04-23T00:59:32.517Z,9.50
2023-04-23T01:02:37.373Z,9.50
2023-04-23T01:05:07.967Z,9.50
2023-04-23T01:07:36.099Z,9.50
2023-04-23T01:10:07.038Z,9.50
2023-04-23T01:12:35.221Z,9.60
2023-04-23T01:15:04.271Z,9.70
2023-04-23T01:17:32.420Z,9.70
2023-04-23T01:19:59.983Z,9.90
2023-04-23T01:22:27.624Z,9.90
2023-04-23T01:24:55.405Z,10.00
2023-04-23T01:27:25.111Z,10.10
2023-04-23T01:29:53.411Z,10.10
2023-04-23T01:32:21.863Z,9.90
2023-04-23T01:34:52.172Z,9.80
2023-04-23T01:37:20.357Z,9.70
2023-04-23T01:39:47.956Z,9.70
2023-04-23T01:42:16.093Z,9.70
2023-04-23T01:44:44.165Z,9.70
2023-04-23T01:47:11.886Z,9.70
2023-04-23T01:49:39.400Z,9.60
2023-04-23T01:52:06.950Z,9.60
2023-04-23T01:54:34.463Z,9.60
2023-04-23T01:57:03.097Z,9.60
2023-04-23T01:59:31.173Z,9.70
2023-04-23T02:01:58.731Z,9.90
2023-04-23T02:04:27.177Z,9.90
2023-04-23T02:06:56.044Z,10.00
2023-04-23T02:09:23.732Z,10.10
2023-04-23T02:11:51.819Z,10.20
2023-04-23T02:14:19.934Z,10.10
2023-04-23T02:16:48.501Z,10.20
2023-04-23T02:19:17.098Z,10.20
2023-04-23T02:21:45.463Z,10.20
2023-04-23T02:24:13.491Z,10.30
2023-04-23T02:26:41.544Z,10.20
2023-04-23T02:29:09.799Z,10.20
2023-04-23T02:31:37.562Z,10.20
2023-04-23T02:34:05.756Z,10.20
2023-04-23T02:36:33.665Z,10.20
2023-04-23T02:39:01.471Z,10.20
2023-04-23T02:41:32.899Z,10.20
2023-04-23T02:44:00.670Z,10.20
2023-04-23T02:46:29.401Z,10.00
2023-04-23T02:48:57.240Z,9.90
2023-04-23T02:51:26.197Z,9.90
2023-04-23T02:53:53.799Z,9.80
2023-04-23T02:56:21.305Z,9.80
2023-04-23T02:58:48.868Z,9.80
2023-04-23T03:01:16.678Z,9.80
2023-04-23T03:03:44.420Z,9.80
2023-04-23T03:06:12.205Z,9.70
2023-04-23T03:08:39.722Z,9.70
2023-04-23T03:11:07.299Z,9.60
2023-04-23T03:13:34.869Z,9.50
2023-04-23T03:16:02.544Z,9.30
2023-04-23T03:18:30.367Z,9.30
2023-04-23T03:20:58.107Z,9.30
2023-04-23T03:23:58.061Z,9.20
2023-04-23T03:26:25.660Z,9.20
2023-04-23T03:28:54.048Z,9.20
2023-04-23T03:31:21.724Z,9.20
2023-04-23T03:33:49.385Z,9.30
2023-04-23T03:36:17.026Z,9.30
2023-04-23T03:38:44.507Z,9.20
2023-04-23T03:41:12.371Z,9.20
2023-04-23T03:43:39.869Z,9.20
2023-04-23T03:46:07.626Z,9.20
2023-04-23T03:48:35.700Z,9.10
2023-04-23T03:51:03.206Z,9.10
2023-04-23T03:53:31.003Z,9.00
2023-04-23T03:55:58.558Z,9.00
2023-04-23T03:58:27.295Z,8.90
2023-04-23T04:00:54.810Z,8.90
2023-04-23T04:03:22.476Z,8.90
2023-04-23T04:05:50.170Z,8.90
2023-04-23T04:08:17.866Z,8.90
2023-04-23T04:10:45.457Z,8.90
2023-04-23T04:13:12.941Z,8.90
2023-04-23T04:15:40.425Z,9.00
2023-04-23T04:18:08.510Z,8.90
2023-04-23T04:20:36.004Z,9.00
2023-04-23T04:23:03.484Z,8.90
2023-04-23T04:25:31.177Z,8.90
2023-04-23T04:27:58.686Z,8.90
2023-04-23T04:30:27.013Z,8.90
2023-04-23T04:32:55.062Z,8.90
2023-04-23T04:35:23.271Z,8.90
2023-04-23T04:37:54.230Z,8.90
2023-04-23T04:40:22.141Z,9.00
2023-04-23T04:42:50.220Z,8.90
2023-04-23T04:45:18.134Z,9.00
2023-04-23T04:47:46.111Z,9.00
2023-04-23T04:50:13.977Z,9.00
2023-04-23T04:52:41.774Z,9.00
2023-04-23T04:55:10.276Z,9.10
2023-04-23T04:57:37.958Z,9.10
2023-04-23T05:00:22.698Z,9.10
2023-04-23T05:02:51.396Z,9.30
2023-04-23T05:05:20.815Z,9.30
2023-04-23T05:07:48.545Z,9.30
2023-04-23T05:10:16.690Z,9.40
2023-04-23T05:12:44.482Z,9.50
2023-04-23T05:15:13.522Z,9.60
2023-04-23T05:17:41.723Z,9.70
2023-04-23T05:20:11.508Z,9.80
2023-04-23T05:22:43.152Z,10.00
2023-04-23T05:25:12.549Z,10.20
2023-04-23T05:27:40.976Z,10.50
2023-04-23T05:30:10.313Z,10.70
2023-04-23T05:32:38.642Z,11.30
2023-04-23T05:35:07.188Z,12.30
2023-04-23T05:37:34.811Z,13.00
2023-04-23T05:40:03.287Z,13.50
2023-04-23T05:42:30.804Z,14.80
2023-04-23T05:44:58.282Z,15.50
2023-04-23T05:47:25.945Z,16.30
2023-04-23T05:49:53.517Z,16.90
2023-04-23T05:52:21.218Z,18.00
2023-04-23T05:54:49.352Z,18.20
2023-04-23T05:57:16.831Z,17.90
2023-04-23T05:59:44.638Z,19.00
2023-04-23T06:02:12.382Z,18.90
2023-04-23T06:04:40.149Z,19.10
2023-04-23T06:07:07.951Z,19.30
2023-04-23T06:09:35.993Z,19.60
2023-04-23T06:12:03.790Z,20.40
2023-04-23T06:14:31.288Z,20.10
2023-04-23T06:16:58.836Z,19.80
2023-04-23T06:19:27.949Z,19.40
2023-04-23T06:21:55.537Z,19.80
2023-04-23T06:24:23.076Z,20.40
2023-04-23T06:26:50.712Z,21.40
2023-04-23T06:29:18.249Z,20.60
2023-04-23T06:31:46.194Z,20.30
2023-04-23T06:34:13.812Z,21.00
2023-04-23T06:36:41.469Z,22.00
2023-04-23T06:39:09.028Z,21.80
2023-04-23T06:41:36.778Z,20.80
2023-04-23T06:44:04.252Z,20.00
2023-04-23T06:46:31.877Z,21.00
2023-04-23T06:48:59.452Z,19.50
2023-04-23T06:51:28.041Z,20.50
2023-04-23T06:53:55.574Z,20.30
2023-04-23T06:56:23.158Z,19.70
2023-04-23T06:58:50.789Z,19.40
2023-04-23T07:01:18.510Z,20.60
2023-04-23T07:03:49.305Z,22.00
2023-04-23T07:06:17.369Z,22.50
2023-04-23T07:08:45.412Z,23.30
2023-04-23T07:11:12.992Z,23.40
2023-04-23T07:13:40.755Z,24.70
2023-04-23T07:16:08.354Z,22.50
2023-04-23T07:18:35.957Z,21.70
2023-04-23T07:21:03.623Z,23.10
2023-04-23T07:23:31.191Z,24.70
2023-04-23T07:25:58.819Z,23.80
2023-04-23T07:28:26.517Z,23.50
2023-04-23T07:30:54.037Z,22.30
2023-04-23T07:33:21.782Z,23.00
2023-04-23T07:35:49.370Z,23.60
2023-04-23T07:38:16.973Z,23.10
2023-04-23T07:40:44.490Z,24.60
2023-04-23T07:43:12.595Z,24.30
2023-04-23T07:45:40.501Z,24.20
2023-04-23T07:48:08.060Z,24.00
2023-04-23T07:50:35.868Z,23.20
2023-04-23T07:53:03.912Z,23.50
2023-04-23T07:55:31.460Z,25.10
2023-04-23T07:57:59.004Z,26.90
2023-04-23T08:00:26.524Z,27.00
2023-04-23T08:02:54.266Z,25.40
2023-04-23T08:05:22.103Z,24.30
2023-04-23T08:07:49.767Z,24.60
2023-04-23T08:10:17.472Z,23.10
2023-04-23T08:12:45.213Z,22.80
2023-04-23T08:15:12.908Z,23.80
2023-04-23T08:17:40.706Z,24.20
2023-04-23T08:20:09.318Z,23.90
2023-04-23T08:22:37.030Z,22.50
2023-04-23T08:25:04.991Z,22.50
2023-04-23T08:27:32.608Z,20.90
2023-04-23T08:30:00.172Z,21.60
2023-04-23T08:32:29.457Z,23.40
2023-04-23T08:34:57.197Z,24.60
2023-04-23T08:37:30.820Z,23.30
2023-04-23T08:39:59.305Z,24.20
2023-04-23T08:42:37.654Z,23.50
2023-04-23T08:45:06.041Z,22.90
2023-04-23T08:47:35.615Z,23.70
2023-04-23T08:50:05.526Z,25.30
2023-04-23T08:52:36.008Z,23.30
2023-04-23T08:55:07.782Z,21.70
2023-04-23T08:57:35.836Z,20.80
2023-04-23T09:00:08.195Z,20.70
2023-04-23T09:02:57.355Z,19.40
2023-04-23T09:05:26.568Z,18.50
2023-04-23T09:07:54.947Z,18.20
2023-04-23T09:10:22.948Z,18.40
2023-04-23T09:12:50.505Z,19.20
2023-04-23T09:15:18.148Z,19.00
2023-04-23T09:17:47.243Z,18.40
2023-04-23T09:20:15.802Z,18.20
2023-04-23T09:22:45.995Z,18.20
2023-04-23T09:25:19.257Z,18.70
2023-04-23T09:27:48.306Z,19.10
2023-04-23T09:30:16.958Z,19.80
2023-04-23T09:32:49.677Z,19.60
2023-04-23T09:35:20.139Z,19.70
2023-04-23T09:37:52.658Z,18.90
2023-04-23T09:40:23.462Z,19.20
2023-04-23T09:42:56.073Z,20.40
2023-04-23T09:45:27.175Z,20.80
2023-04-23T09:47:56.577Z,19.90
2023-04-23T09:50:42.329Z,21.00
2023-04-23T09:53:10.872Z,20.70
2023-04-23T09:55:41.010Z,20.10
2023-04-23T09:58:13.561Z,20.20
2023-04-23T10:00:41.570Z,19.40
2023-04-23T10:03:10.348Z,19.50
2023-04-23T10:05:59.647Z,18.90
2023-04-23T10:08:29.182Z,18.10
2023-04-23T10:11:09.626Z,18.30
2023-04-23T10:13:42.398Z,19.50
2023-04-23T10:16:21.781Z,19.10
2023-04-23T10:18:53.352Z,19.50
2023-04-23T10:21:24.904Z,20.00
2023-04-23T10:23:52.577Z,20.70
2023-04-23T10:26:23.865Z,19.80
2023-04-23T10:28:55.055Z,20.10
2023-04-23T10:31:23.744Z,19.70
2023-04-23T10:33:58.305Z,19.40
2023-04-23T10:36:28.134Z,18.90
2023-04-23T10:39:00.327Z,18.80
2023-04-23T10:41:35.694Z,18.50
2023-04-23T10:44:05.457Z,18.90
2023-04-23T10:46:37.018Z,19.50
2023-04-23T10:49:17.283Z,19.10
2023-04-23T10:54:21.543Z,18.30
2023-04-23T10:56:59.884Z,18.40
2023-04-23T10:59:31.414Z,18.00
2023-04-23T11:02:07.199Z,18.30
2023-04-23T11:04:36.339Z,18.50
2023-04-23T11:07:08.743Z,18.40
2023-04-23T11:09:48.478Z,18.60
2023-04-23T11:12:24.851Z,18.20
2023-04-23T11:14:54.967Z,18.40
2023-04-23T11:17:44.060Z,18.50
2023-04-23T11:20:16.466Z,17.80
2023-04-23T11:22:45.136Z,17.90
2023-04-23T11:25:13.337Z,18.00
2023-04-23T11:27:43.584Z,18.50
2023-04-23T11:30:16.501Z,18.70
2023-04-23T11:32:53.176Z,18.80
2023-04-23T11:35:29.600Z,19.20
2023-04-23T11:37:57.497Z,19.60
2023-04-23T11:40:25.939Z,19.10
2023-04-23T11:42:55.347Z,19.00
2023-04-23T11:45:27.373Z,18.70
2023-04-23T11:47:57.385Z,18.70
2023-04-23T11:50:30.708Z,18.80
2023-04-23T11:52:58.732Z,18.90
2023-04-23T11:55:26.694Z,18.90
2023-04-23T11:57:54.212Z,18.00
2023-04-23T12:00:24.417Z,18.10
2023-04-23T12:03:02.540Z,18.70
2023-04-23T12:05:43.693Z,19.30
2023-04-23T12:08:19.532Z,18.60
2023-04-23T12:11:00.595Z,17.90
2023-04-23T12:13:33.928Z,18.20
2023-04-23T12:16:02.456Z,18.30
2023-04-23T12:18:39.657Z,18.10
2023-04-23T12:21:11.455Z,17.70
2023-04-23T12:23:41.640Z,17.40
2023-04-23T12:26:13.884Z,17.30
2023-04-23T12:28:50.037Z,17.00
2023-04-23T12:31:25.070Z,17.00
2023-04-23T12:34:09.012Z,16.80
2023-04-23T12:36:37.988Z,15.90
2023-04-23T12:39:25.773Z,15.60
2023-04-23T12:42:03.208Z,15.10
2023-04-23T12:44:35.592Z,14.90
2023-04-23T12:47:07.476Z,14.70
2023-04-23T12:49:37.452Z,14.50
2023-04-23T12:52:06.405Z,14.50
2023-04-23T12:54:37.827Z,14.60
2023-04-23T12:57:12.207Z,14.30
2023-04-23T12:59:39.971Z,14.20
2023-04-23T13:02:07.845Z,14.10
2023-04-23T13:04:36.675Z,14.20
2023-04-23T13:07:05.010Z,14.10
2023-04-23T13:09:32.612Z,13.90
2023-04-23T13:12:00.804Z,13.80
2023-04-23T13:14:28.825Z,13.90
2023-04-23T13:16:58.124Z,13.80
2023-04-23T13:19:25.755Z,13.80
2023-04-23T13:21:53.951Z,14.00
2023-04-23T13:24:21.549Z,14.00
2023-04-23T13:26:49.173Z,14.00
2023-04-23T13:29:18.739Z,13.80
2023-04-23T13:31:46.890Z,13.60
2023-04-23T13:34:15.580Z,13.60
2023-04-23T13:36:43.374Z,13.50
2023-04-23T13:39:13.431Z,13.80
2023-04-23T13:41:41.531Z,13.70
2023-04-23T13:44:09.217Z,13.60
2023-04-23T13:46:37.288Z,13.50
2023-04-23T13:49:04.839Z,13.40
2023-04-23T13:51:35.793Z,13.50
2023-04-23T13:54:07.050Z,13.30
2023-04-23T13:56:34.597Z,13.30
2023-04-23T14:01:35.571Z,13.50
2023-04-23T14:04:04.477Z,13.40
2023-04-23T14:06:32.258Z,13.30
2023-04-23T14:08:59.846Z,13.60
2023-04-23T14:11:27.662Z,13.60
2023-04-23T14:13:56.545Z,13.60
2023-04-23T14:16:24.088Z,13.50
2023-04-23T14:18:51.933Z,13.40
2023-04-23T14:21:19.714Z,13.10
2023-04-23T14:23:57.167Z,13.00
2023-04-23T14:26:48.146Z,12.90
2023-04-23T14:29:25.722Z,12.70
2023-04-23T14:31:53.600Z,12.80
2023-04-23T14:34:21.628Z,12.60
2023-04-23T14:36:49.782Z,12.70
2023-04-23T14:39:17.539Z,12.80
2023-04-23T14:41:45.551Z,12.90
2023-04-23T14:44:13.140Z,13.00
2023-04-23T14:46:40.826Z,13.10
2023-04-23T14:49:09.033Z,13.50
2023-04-23T14:51:37.624Z,13.70
2023-04-23T14:54:07.921Z,14.10
2023-04-23T14:56:37.034Z,14.30
2023-04-23T14:59:04.956Z,14.20
2023-04-23T15:01:33.239Z,14.20
2023-04-23T15:04:01.303Z,14.00
2023-04-23T15:06:29.462Z,14.10
2023-04-23T15:08:57.127Z,14.10
2023-04-23T15:11:24.722Z,13.90
2023-04-23T15:14:18.571Z,13.80
2023-04-23T15:16:48.945Z,14.00
2023-04-23T15:19:18.582Z,14.10
2023-04-23T15:21:47.418Z,13.90
2023-04-23T15:24:15.779Z,14.10
2023-04-23T15:26:43.972Z,14.20
2023-04-23T15:29:13.861Z,14.40
2023-04-23T15:31:42.324Z,14.30
2023-04-23T15:34:11.671Z,14.10
2023-04-23T15:36:39.487Z,14.10
2023-04-23T15:39:08.746Z,14.20
2023-04-23T15:41:39.403Z,14.40
2023-04-23T15:44:12.093Z,14.50
2023-04-23T15:46:40.194Z,14.40
2023-04-23T15:49:08.077Z,14.60
2023-04-23T15:51:36.241Z,14.50
2023-04-23T15:54:06.056Z,14.30
2023-04-23T15:56:33.841Z,14.30
2023-04-23T15:59:01.457Z,14.20
2023-04-23T16:01:29.680Z,14.30
2023-04-23T16:06:27.820Z,14.30
2023-04-23T16:08:55.280Z,14.40
2023-04-23T16:11:27.716Z,14.20
2023-04-23T16:13:57.153Z,14.30
2023-04-23T16:16:24.722Z,14.30
2023-04-23T16:18:52.421Z,14.40
2023-04-23T16:21:19.872Z,14.10
2023-04-23T16:23:47.353Z,14.00
2023-04-23T16:26:15.172Z,14.00
2023-04-23T16:28:42.695Z,14.10
2023-04-23T16:31:10.566Z,14.20
2023-04-23T16:33:38.176Z,14.20
2023-04-23T16:36:06.143Z,14.20
2023-04-23T16:38:33.772Z,14.20
2023-04-23T16:41:02.285Z,14.30
2023-04-23T16:43:29.827Z,14.30
2023-04-23T16:45:58.277Z,14.30
2023-04-23T16:48:25.943Z,14.30
2023-04-23T16:50:53.469Z,14.40
2023-04-23T16:53:20.949Z,14.40
2023-04-23T16:55:48.804Z,14.30
2023-04-23T16:58:17.907Z,14.20
2023-04-23T17:00:47.057Z,14.10
2023-04-23T17:03:16.238Z,14.00
2023-04-23T17:05:44.328Z,13.90
2023-04-23T17:08:11.986Z,13.80
2023-04-23T17:10:39.709Z,13.50
2023-04-23T17:13:07.186Z,13.00
2023-04-23T17:15:34.699Z,12.50
2023-04-23T17:18:02.477Z,12.30
2023-04-23T17:20:35.181Z,12.10
2023-04-23T17:23:03.739Z,12.10
2023-04-23T17:25:31.243Z,12.20
2023-04-23T17:27:59.063Z,12.30
2023-04-23T17:30:27.034Z,12.20
2023-04-23T17:32:54.542Z,12.10
2023-04-23T17:35:22.065Z,11.90
2023-04-23T17:37:49.784Z,11.80
2023-04-23T17:40:17.843Z,11.60
2023-04-23T17:42:45.485Z,11.30
2023-04-23T17:45:13.124Z,11.10
2023-04-23T17:47:41.157Z,10.90
2023-04-23T17:50:11.713Z,10.90
2023-04-23T17:52:42.602Z,10.80
2023-04-23T17:55:10.282Z,10.70
2023-04-23T17:57:37.790Z,10.70
2023-04-23T18:00:13.729Z,10.70
2023-04-23T18:02:41.746Z,10.60
2023-04-23T18:05:10.602Z,10.60
2023-04-23T18:07:39.348Z,10.60
2023-04-23T18:10:08.161Z,10.70
2023-04-23T18:12:36.320Z,10.60
2023-04-23T18:15:04.378Z,10.60
2023-04-23T18:17:31.970Z,10.60
2023-04-23T18:19:59.490Z,10.50
2023-04-23T18:22:27.075Z,10.50
2023-04-23T18:24:55.396Z,10.50
2023-04-23T18:27:22.872Z,10.40
2023-04-23T18:29:50.430Z,10.40
2023-04-23T18:32:27.557Z,10.40
2023-04-23T18:35:02.552Z,10.30
2023-04-23T18:37:39.036Z,10.30
2023-04-23T18:40:07.380Z,10.20
2023-04-23T18:42:35.284Z,10.20
2023-04-23T18:45:04.390Z,10.10
2023-04-23T18:47:38.483Z,10.10
2023-04-23T18:50:28.346Z,10.10
2023-04-23T18:52:55.981Z,10.10
2023-04-23T18:55:23.503Z,10.10
2023-04-23T18:57:51.786Z,10.10
2023-04-23T19:00:19.566Z,10.00
2023-04-23T19:02:47.433Z,10.00
2023-04-23T19:05:15.113Z,9.90
2023-04-23T19:07:43.173Z,9.90
2023-04-23T19:10:11.685Z,9.90
2023-04-23T19:12:39.458Z,9.90
2023-04-23T19:15:07.487Z,9.80
2023-04-23T19:17:35.746Z,9.80
2023-04-23T19:20:04.154Z,9.80
2023-04-23T19:22:31.932Z,9.70
2023-04-23T19:24:59.422Z,9.80
2023-04-23T19:27:26.980Z,9.80
2023-04-23T19:29:55.935Z,9.70
2023-04-23T19:32:23.501Z,9.70
2023-04-23T19:34:51.889Z,9.80
2023-04-23T19:37:19.433Z,9.90
2023-04-23T19:39:46.916Z,9.80
2023-04-23T19:42:14.734Z,9.90
2023-04-23T19:44:42.601Z,9.80
2023-04-23T19:47:10.362Z,9.90
2023-04-23T19:49:37.872Z,10.00
2023-04-23T19:52:05.610Z,10.00
2023-04-23T19:54:33.144Z,10.00
2023-04-23T19:57:00.792Z,10.10
2023-04-23T19:59:28.360Z,10.10
2023-04-23T20:01:56.206Z,10.10
2023-04-23T20:04:23.827Z,10.10
2023-04-23T20:06:53.456Z,10.00
2023-04-23T20:09:22.021Z,10.00
2023-04-23T20:11:49.658Z,10.00
2023-04-23T20:14:17.912Z,10.00
2023-04-23T20:16:45.922Z,10.00
2023-04-23T20:19:14.790Z,10.00
2023-04-23T20:21:46.231Z,10.10
2023-04-23T20:24:17.293Z,10.20
2023-04-23T20:26:44.857Z,10.20
2023-04-23T20:29:12.486Z,10.10
2023-04-23T20:31:40.378Z,10.20
2023-04-23T20:34:08.171Z,10.20
2023-04-23T20:36:35.863Z,10.30
2023-04-23T20:39:05.181Z,10.30
2023-04-23T20:41:36.897Z,10.30
2023-04-23T20:44:09.428Z,10.30
2023-04-23T20:46:37.071Z,10.20
2023-04-23T20:49:05.042Z,10.20
2023-04-23T20:51:35.609Z,10.30
2023-04-23T20:54:03.160Z,10.30
2023-04-23T20:56:31.631Z,10.30
2023-04-23T20:58:59.846Z,10.30
2023-04-23T21:01:27.760Z,10.30
2023-04-23T21:03:55.462Z,10.30
2023-04-23T21:06:23.226Z,10.30
2023-04-23T21:08:50.745Z,10.40
2023-04-23T21:11:19.728Z,10.40
2023-04-23T21:13:47.472Z,10.40
2023-04-23T21:16:15.436Z,10.40
2023-04-23T21:18:43.927Z,10.40
2023-04-23T21:21:11.481Z,10.40
2023-04-23T21:23:39.238Z,10.40
2023-04-23T21:26:07.769Z,10.40
2023-04-23T21:28:36.397Z,10.30
2023-04-23T21:31:17.868Z,10.30
2023-04-23T21:33:45.664Z,10.30
2023-04-23T21:36:13.556Z,10.20
2023-04-23T21:38:41.020Z,10.30
2023-04-23T21:41:08.745Z,10.20
2023-04-23T21:43:36.635Z,10.10
2023-04-23T21:46:04.189Z,10.20
2023-04-23T21:48:32.151Z,10.10
2023-04-23T21:50:59.741Z,10.20
2023-04-23T21:53:27.735Z,10.10
2023-04-23T21:55:55.430Z,10.10
2023-04-23T21:58:22.996Z,10.10
2023-04-23T22:00:50.696Z,10.10
2023-04-23T22:03:22.748Z,10.00
2023-04-23T22:06:05.316Z,10.00
2023-04-23T22:08:34.866Z,9.90
2023-04-23T22:11:02.376Z,9.80
2023-04-23T22:13:29.911Z,9.90
2023-04-23T22:15:57.534Z,9.90
2023-04-23T22:18:25.714Z,9.90
2023-04-23T22:20:53.576Z,9.90
2023-04-23T22:23:21.758Z,10.00
2023-04-23T22:25:49.437Z,9.90
2023-04-23T22:28:17.378Z,9.90
2023-04-23T22:30:45.068Z,9.90
2023-04-23T22:33:12.629Z,9.90
2023-04-23T22:35:40.338Z,10.00
2023-04-23T22:38:08.477Z,9.90
2023-04-23T22:40:36.130Z,9.90
2023-04-23T22:43:03.826Z,9.80
2023-04-23T22:45:31.345Z,9.80
2023-04-23T22:47:58.865Z,9.80
2023-04-23T22:50:27.237Z,9.80
2023-04-23T22:52:54.698Z,9.80
2023-04-23T22:55:22.236Z,9.80
2023-04-23T22:57:49.793Z,9.80
2023-04-23T23:00:17.379Z,9.70
2023-04-23T23:02:45.040Z,9.80
2023-04-23T23:05:12.759Z,9.70
2023-04-23T23:07:40.352Z,9.70
2023-04-23T23:10:11.221Z,9.80
2023-04-23T23:12:39.519Z,9.70
2023-04-23T23:15:08.139Z,9.80
2023-04-23T23:17:35.740Z,9.80
2023-04-23T23:20:06.937Z,9.80
2023-04-23T23:22:35.143Z,9.80
2023-04-23T23:25:02.857Z,9.80
2023-04-23T23:27:30.536Z,9.80
2023-04-23T23:29:58.153Z,9.70
2023-04-23T23:32:25.742Z,9.60
2023-04-23T23:34:53.398Z,9.60
2023-04-23T23:37:20.984Z,9.60
2023-04-23T23:39:48.536Z,9.60
2023-04-23T23:42:16.181Z,9.70
2023-04-23T23:44:43.812Z,9.70
2023-04-23T23:47:11.502Z,9.70
2023-04-23T23:49:39.222Z,9.70
2023-04-23T23:52:06.950Z,9.70
2023-04-23T23:54:34.609Z,9.70
2023-04-23T23:57:02.719Z,9.70
2023-04-23T23:59:30.230Z,9.70
